sensor_id;sensor_type;location;lat;lon;timestamp;pressure;altitude;pressure_sealevel;temperature;humidity
50380;BME280;37474;59.468;18.040;2023-03-16T00:00:26;100983.38;;;-6.31;100.00
50380;BME280;37474;59.468;18.040;2023-03-16T00:02:58;100985.34;;;-6.17;100.00
50380;BME280;37474;59.468;18.040;2023-03-16T00:05:26;100983.66;;;-6.18;100.00
50380;BME280;37474;59.468;18.040;2023-03-16T00:07:56;100994.22;;;-6.35;100.00
50380;BME280;37474;59.468;18.040;2023-03-16T00:10:29;100990.09;;;-6.32;100.00
50380;BME280;37474;59.468;18.040;2023-03-16T00:12:59;100991.81;;;-6.29;100.00
50380;BME280;37474;59.468;18.040;2023-03-16T00:15:28;101006.63;;;-6.45;100.00
50380;BME280;37474;59.468;18.040;2023-03-16T00:17:58;101015.19;;;-6.38;100.00
50380;BME280;37474;59.468;18.040;2023-03-16T00:20:26;101022.22;;;-6.61;100.00
50380;BME280;37474;59.468;18.040;2023-03-16T00:22:55;101025.66;;;-6.59;100.00
50380;BME280;37474;59.468;18.040;2023-03-16T00:25:25;101024.97;;;-6.14;100.00
50380;BME280;37474;59.468;18.040;2023-03-16T00:27:56;101026.44;;;-6.22;100.00
50380;BME280;37474;59.468;18.040;2023-03-16T00:30:24;101026.50;;;-6.21;100.00
50380;BME280;37474;59.468;18.040;2023-03-16T00:32:53;101024.34;;;-6.43;100.00
50380;BME280;37474;59.468;18.040;2023-03-16T00:35:23;101031.13;;;-6.39;100.00
50380;BME280;37474;59.468;18.040;2023-03-16T00:37:53;101041.91;;;-6.46;100.00
50380;BME280;37474;59.468;18.040;2023-03-16T00:40:22;101047.09;;;-6.40;100.00
50380;BME280;37474;59.468;18.040;2023-03-16T00:42:52;101041.09;;;-6.45;100.00
50380;BME280;37474;59.468;18.040;2023-03-16T00:45:24;101050.28;;;-6.49;100.00
50380;BME280;37474;59.468;18.040;2023-03-16T00:47:52;101047.63;;;-6.55;100.00
50380;BME280;37474;59.468;18.040;2023-03-16T00:50:22;101043.19;;;-6.63;100.00
50380;BME280;37474;59.468;18.040;2023-03-16T00:52:52;101036.13;;;-6.42;100.00
50380;BME280;37474;59.468;18.040;2023-03-16T00:55:20;101050.16;;;-6.53;100.00
50380;BME280;37474;59.468;18.040;2023-03-16T00:57:50;101049.22;;;-6.57;100.00
50380;BME280;37474;59.468;18.040;2023-03-16T01:00:20;101054.78;;;-6.72;100.00
50380;BME280;37474;59.468;18.040;2023-03-16T01:02:54;101044.81;;;-7.00;100.00
50380;BME280;37474;59.468;18.040;2023-03-16T01:05:24;101056.16;;;-6.83;100.00
50380;BME280;37474;59.468;18.040;2023-03-16T01:07:52;101052.53;;;-6.94;100.00
50380;BME280;37474;59.468;18.040;2023-03-16T01:10:21;101066.22;;;-7.18;100.00
50380;BME280;37474;59.468;18.040;2023-03-16T01:12:50;101067.06;;;-6.84;100.00
50380;BME280;37474;59.468;18.040;2023-03-16T01:15:21;101069.38;;;-6.93;100.00
50380;BME280;37474;59.468;18.040;2023-03-16T01:17:53;101068.41;;;-6.63;100.00
50380;BME280;37474;59.468;18.040;2023-03-16T01:20:23;101065.09;;;-6.96;100.00
50380;BME280;37474;59.468;18.040;2023-03-16T01:22:52;101063.53;;;-7.24;100.00
50380;BME280;37474;59.468;18.040;2023-03-16T01:25:22;101080.53;;;-7.17;100.00
50380;BME280;37474;59.468;18.040;2023-03-16T01:27:51;101081.59;;;-6.74;100.00
50380;BME280;37474;59.468;18.040;2023-03-16T01:30:22;101088.06;;;-6.85;100.00
50380;BME280;37474;59.468;18.040;2023-03-16T01:32:50;101090.16;;;-7.02;100.00
50380;BME280;37474;59.468;18.040;2023-03-16T01:35:19;101094.88;;;-7.14;100.00
50380;BME280;37474;59.468;18.040;2023-03-16T01:37:49;101082.97;;;-7.20;100.00
50380;BME280;37474;59.468;18.040;2023-03-16T01:40:17;101113.78;;;-6.98;100.00
50380;BME280;37474;59.468;18.040;2023-03-16T01:42:46;101120.59;;;-6.94;100.00
50380;BME280;37474;59.468;18.040;2023-03-16T01:48:25;101130.63;;;-6.96;100.00
50380;BME280;37474;59.468;18.040;2023-03-16T01:50:55;101133.03;;;-7.00;100.00
50380;BME280;37474;59.468;18.040;2023-03-16T01:53:23;101133.25;;;-6.93;100.00
50380;BME280;37474;59.468;18.040;2023-03-16T01:55:56;101134.91;;;-6.93;100.00
50380;BME280;37474;59.468;18.040;2023-03-16T01:58:26;101139.84;;;-6.65;100.00
50380;BME280;37474;59.468;18.040;2023-03-16T02:00:57;101146.31;;;-6.74;100.00
50380;BME280;37474;59.468;18.040;2023-03-16T02:03:27;101144.16;;;-6.94;100.00
50380;BME280;37474;59.468;18.040;2023-03-16T02:06:01;101155.19;;;-6.55;100.00
50380;BME280;37474;59.468;18.040;2023-03-16T02:08:32;101152.31;;;-6.69;100.00
50380;BME280;37474;59.468;18.040;2023-03-16T02:11:03;101161.03;;;-6.56;100.00
50380;BME280;37474;59.468;18.040;2023-03-16T02:13:32;101170.25;;;-6.90;100.00
50380;BME280;37474;59.468;18.040;2023-03-16T02:16:07;101182.44;;;-7.05;100.00
50380;BME280;37474;59.468;18.040;2023-03-16T02:18:35;101183.03;;;-6.84;100.00
50380;BME280;37474;59.468;18.040;2023-03-16T02:21:15;101181.03;;;-6.96;100.00
50380;BME280;37474;59.468;18.040;2023-03-16T02:23:54;101194.28;;;-7.03;100.00
50380;BME280;37474;59.468;18.040;2023-03-16T02:26:28;101194.25;;;-6.73;100.00
50380;BME280;37474;59.468;18.040;2023-03-16T02:29:13;101202.31;;;-6.86;100.00
50380;BME280;37474;59.468;18.040;2023-03-16T02:31:47;101197.53;;;-7.07;100.00
50380;BME280;37474;59.468;18.040;2023-03-16T02:34:17;101203.53;;;-7.03;100.00
50380;BME280;37474;59.468;18.040;2023-03-16T02:36:45;101155.59;;;-7.35;100.00
50380;BME280;37474;59.468;18.040;2023-03-16T02:39:16;101206.75;;;-7.07;100.00
50380;BME280;37474;59.468;18.040;2023-03-16T02:41:46;101210.81;;;-7.12;100.00
50380;BME280;37474;59.468;18.040;2023-03-16T02:44:20;101212.91;;;-7.28;100.00
50380;BME280;37474;59.468;18.040;2023-03-16T02:46:57;101218.31;;;-7.15;100.00
50380;BME280;37474;59.468;18.040;2023-03-16T02:49:31;101213.47;;;-7.38;100.00
50380;BME280;37474;59.468;18.040;2023-03-16T02:52:05;101212.59;;;-7.10;100.00
50380;BME280;37474;59.468;18.040;2023-03-16T02:54:33;101217.16;;;-7.27;100.00
50380;BME280;37474;59.468;18.040;2023-03-16T02:57:02;101221.38;;;-7.54;100.00
50380;BME280;37474;59.468;18.040;2023-03-16T02:59:34;101220.63;;;-7.50;100.00
50380;BME280;37474;59.468;18.040;2023-03-16T03:02:05;101223.03;;;-7.26;100.00
50380;BME280;37474;59.468;18.040;2023-03-16T03:04:36;101230.22;;;-7.38;100.00
50380;BME280;37474;59.468;18.040;2023-03-16T03:07:04;101229.19;;;-7.45;100.00
50380;BME280;37474;59.468;18.040;2023-03-16T03:09:34;101239.94;;;-7.51;100.00
50380;BME280;37474;59.468;18.040;2023-03-16T03:12:04;101246.09;;;-7.69;100.00
50380;BME280;37474;59.468;18.040;2023-03-16T03:14:32;101247.44;;;-7.52;100.00
50380;BME280;37474;59.468;18.040;2023-03-16T03:17:08;101256.03;;;-7.46;100.00
50380;BME280;37474;59.468;18.040;2023-03-16T03:19:40;101258.97;;;-7.60;100.00
50380;BME280;37474;59.468;18.040;2023-03-16T03:22:10;101257.63;;;-7.49;100.00
50380;BME280;37474;59.468;18.040;2023-03-16T03:24:38;101269.75;;;-7.36;100.00
50380;BME280;37474;59.468;18.040;2023-03-16T03:27:07;101269.63;;;-7.40;100.00
50380;BME280;37474;59.468;18.040;2023-03-16T03:29:37;101272.56;;;-6.98;100.00
50380;BME280;37474;59.468;18.040;2023-03-16T03:32:09;101240.00;;;-7.21;100.00
50380;BME280;37474;59.468;18.040;2023-03-16T03:34:37;101278.19;;;-7.35;100.00
50380;BME280;37474;59.468;18.040;2023-03-16T03:37:05;101286.03;;;-7.80;100.00
50380;BME280;37474;59.468;18.040;2023-03-16T03:39:35;101287.03;;;-7.75;100.00
50380;BME280;37474;59.468;18.040;2023-03-16T03:42:07;101293.41;;;-7.85;100.00
50380;BME280;37474;59.468;18.040;2023-03-16T03:44:35;101294.47;;;-7.78;100.00
50380;BME280;37474;59.468;18.040;2023-03-16T03:47:05;101278.28;;;-7.86;100.00
50380;BME280;37474;59.468;18.040;2023-03-16T03:49:36;101306.69;;;-7.63;100.00
50380;BME280;37474;59.468;18.040;2023-03-16T03:52:04;101309.13;;;-7.92;100.00
50380;BME280;37474;59.468;18.040;2023-03-16T03:54:34;101320.34;;;-8.08;100.00
50380;BME280;37474;59.468;18.040;2023-03-16T03:57:04;101284.97;;;-8.12;100.00
50380;BME280;37474;59.468;18.040;2023-03-16T03:59:32;101314.91;;;-7.69;100.00
50380;BME280;37474;59.468;18.040;2023-03-16T04:02:02;101310.66;;;-7.72;100.00
50380;BME280;37474;59.468;18.040;2023-03-16T04:04:32;101324.28;;;-7.65;100.00
50380;BME280;37474;59.468;18.040;2023-03-16T04:07:01;101321.06;;;-7.86;100.00
50380;BME280;37474;59.468;18.040;2023-03-16T04:09:31;101326.84;;;-7.89;100.00
50380;BME280;37474;59.468;18.040;2023-03-16T04:12:03;101340.44;;;-8.09;100.00
50380;BME280;37474;59.468;18.040;2023-03-16T04:14:31;101339.66;;;-8.07;100.00
50380;BME280;37474;59.468;18.040;2023-03-16T04:17:01;101351.41;;;-8.07;100.00
50380;BME280;37474;59.468;18.040;2023-03-16T04:19:34;101349.16;;;-8.24;100.00
50380;BME280;37474;59.468;18.040;2023-03-16T04:22:03;101350.69;;;-8.03;100.00
50380;BME280;37474;59.468;18.040;2023-03-16T04:24:32;101355.03;;;-7.99;100.00
50380;BME280;37474;59.468;18.040;2023-03-16T04:27:04;101347.34;;;-8.04;100.00
50380;BME280;37474;59.468;18.040;2023-03-16T04:29:32;101357.06;;;-8.13;100.00
50380;BME280;37474;59.468;18.040;2023-03-16T04:32:00;101355.69;;;-8.29;100.00
50380;BME280;37474;59.468;18.040;2023-03-16T04:34:32;101361.09;;;-8.18;100.00
50380;BME280;37474;59.468;18.040;2023-03-16T04:37:01;101364.44;;;-8.43;100.00
50380;BME280;37474;59.468;18.040;2023-03-16T04:39:30;101358.69;;;-8.39;100.00
50380;BME280;37474;59.468;18.040;2023-03-16T04:42:00;101366.06;;;-8.19;100.00
50380;BME280;37474;59.468;18.040;2023-03-16T04:44:30;101361.69;;;-8.25;100.00
50380;BME280;37474;59.468;18.040;2023-03-16T04:46:58;101369.31;;;-8.47;100.00
50380;BME280;37474;59.468;18.040;2023-03-16T04:49:28;101373.13;;;-8.57;100.00
50380;BME280;37474;59.468;18.040;2023-03-16T04:51:57;101365.94;;;-8.48;100.00
50380;BME280;37474;59.468;18.040;2023-03-16T04:54:26;101371.63;;;-8.28;100.00
50380;BME280;37474;59.468;18.040;2023-03-16T04:56:57;101378.59;;;-8.21;100.00
50380;BME280;37474;59.468;18.040;2023-03-16T04:59:27;101381.50;;;-8.58;100.00
50380;BME280;37474;59.468;18.040;2023-03-16T05:01:55;101378.50;;;-8.48;100.00
50380;BME280;37474;59.468;18.040;2023-03-16T05:04:25;101389.69;;;-8.40;100.00
50380;BME280;37474;59.468;18.040;2023-03-16T05:06:57;101394.84;;;-8.37;100.00
50380;BME280;37474;59.468;18.040;2023-03-16T05:09:25;101393.41;;;-8.29;100.00
50380;BME280;37474;59.468;18.040;2023-03-16T05:11:53;101400.53;;;-8.65;100.00
50380;BME280;37474;59.468;18.040;2023-03-16T05:14:26;101402.69;;;-8.52;100.00
50380;BME280;37474;59.468;18.040;2023-03-16T05:16:53;101410.91;;;-8.32;100.00
50380;BME280;37474;59.468;18.040;2023-03-16T05:19:21;101416.38;;;-8.19;100.00
50380;BME280;37474;59.468;18.040;2023-03-16T05:21:58;101412.72;;;-8.52;100.00
50380;BME280;37474;59.468;18.040;2023-03-16T05:24:26;101425.41;;;-8.25;100.00
50380;BME280;37474;59.468;18.040;2023-03-16T05:26:53;101358.75;;;-8.61;100.00
50380;BME280;37474;59.468;18.040;2023-03-16T05:29:26;101431.09;;;-8.06;100.00
50380;BME280;37474;59.468;18.040;2023-03-16T05:31:54;101432.53;;;-8.13;100.00
50380;BME280;37474;59.468;18.040;2023-03-16T05:34:22;101428.69;;;-8.27;100.00
50380;BME280;37474;59.468;18.040;2023-03-16T05:36:52;101439.75;;;-8.22;100.00
50380;BME280;37474;59.468;18.040;2023-03-16T05:39:20;101440.47;;;-8.02;100.00
50380;BME280;37474;59.468;18.040;2023-03-16T05:41:48;101440.47;;;-8.02;100.00
50380;BME280;37474;59.468;18.040;2023-03-16T05:44:20;101447.13;;;-8.04;100.00
50380;BME280;37474;59.468;18.040;2023-03-16T05:46:49;101450.44;;;-7.81;100.00
50380;BME280;37474;59.468;18.040;2023-03-16T05:49:17;101417.22;;;-7.95;100.00
50380;BME280;37474;59.468;18.040;2023-03-16T05:51:53;101461.97;;;-7.88;100.00
50380;BME280;37474;59.468;18.040;2023-03-16T05:54:21;101453.22;;;-7.74;100.00
50380;BME280;37474;59.468;18.040;2023-03-16T05:56:49;101462.47;;;-7.73;100.00
50380;BME280;37474;59.468;18.040;2023-03-16T05:59:21;101426.06;;;-8.06;100.00
50380;BME280;37474;59.468;18.040;2023-03-16T06:01:50;101466.66;;;-7.97;100.00
50380;BME280;37474;59.468;18.040;2023-03-16T06:04:18;101468.78;;;-7.84;100.00
50380;BME280;37474;59.468;18.040;2023-03-16T06:06:51;101470.22;;;-7.66;100.00
50380;BME280;37474;59.468;18.040;2023-03-16T06:09:19;101470.38;;;-7.38;100.00
50380;BME280;37474;59.468;18.040;2023-03-16T06:11:46;101480.75;;;-7.29;100.00
50380;BME280;37474;59.468;18.040;2023-03-16T06:14:18;101478.63;;;-7.17;100.00
50380;BME280;37474;59.468;18.040;2023-03-16T06:16:46;101484.97;;;-7.02;100.00
50380;BME280;37474;59.468;18.040;2023-03-16T06:19:15;101474.03;;;-6.76;100.00
50380;BME280;37474;59.468;18.040;2023-03-16T06:21:47;101480.63;;;-6.52;100.00
50380;BME280;37474;59.468;18.040;2023-03-16T06:24:17;101483.16;;;-6.24;100.00
50380;BME280;37474;59.468;18.040;2023-03-16T06:26:45;101489.00;;;-5.96;100.00
50380;BME280;37474;59.468;18.040;2023-03-16T06:29:14;101496.34;;;-5.72;100.00
50380;BME280;37474;59.468;18.040;2023-03-16T06:31:44;101496.63;;;-5.30;100.00
50380;BME280;37474;59.468;18.040;2023-03-16T06:34:12;101505.56;;;-4.75;100.00
50380;BME280;37474;59.468;18.040;2023-03-16T06:36:44;101496.31;;;-4.35;99.08
50380;BME280;37474;59.468;18.040;2023-03-16T06:39:18;101513.97;;;-3.99;99.32
50380;BME280;37474;59.468;18.040;2023-03-16T06:41:52;101512.56;;;-3.85;97.80
50380;BME280;37474;59.468;18.040;2023-03-16T06:44:22;101515.50;;;-3.65;98.78
50380;BME280;37474;59.468;18.040;2023-03-16T06:46:52;101529.84;;;-3.65;93.81
50380;BME280;37474;59.468;18.040;2023-03-16T06:49:20;101535.00;;;-3.61;91.65
50380;BME280;37474;59.468;18.040;2023-03-16T06:51:51;101529.97;;;-3.59;89.15
50380;BME280;37474;59.468;18.040;2023-03-16T06:54:24;101538.72;;;-3.43;94.50
50380;BME280;37474;59.468;18.040;2023-03-16T06:56:52;101545.88;;;-3.21;89.31
50380;BME280;37474;59.468;18.040;2023-03-16T06:59:20;101547.91;;;-3.00;86.21
50380;BME280;37474;59.468;18.040;2023-03-16T07:01:52;101547.56;;;-3.22;84.49
50380;BME280;37474;59.468;18.040;2023-03-16T07:04:19;101551.09;;;-3.12;83.40
50380;BME280;37474;59.468;18.040;2023-03-16T07:06:49;101556.22;;;-3.10;83.60
50380;BME280;37474;59.468;18.040;2023-03-16T07:09:20;101567.53;;;-2.93;79.95
50380;BME280;37474;59.468;18.040;2023-03-16T07:11:48;101508.03;;;-3.10;79.82
50380;BME280;37474;59.468;18.040;2023-03-16T07:14:18;101570.47;;;-2.67;78.95
50380;BME280;37474;59.468;18.040;2023-03-16T07:16:52;101580.88;;;-2.52;76.39
50380;BME280;37474;59.468;18.040;2023-03-16T07:19:20;101580.69;;;-2.64;78.00
50380;BME280;37474;59.468;18.040;2023-03-16T07:21:49;101591.00;;;-2.55;77.50
50380;BME280;37474;59.468;18.040;2023-03-16T07:24:21;101593.03;;;-2.32;76.29
50380;BME280;37474;59.468;18.040;2023-03-16T07:26:48;101586.38;;;-2.24;77.12
50380;BME280;37474;59.468;18.040;2023-03-16T07:29:17;101592.38;;;-2.18;74.85
50380;BME280;37474;59.468;18.040;2023-03-16T07:31:48;101593.22;;;-2.20;75.49
50380;BME280;37474;59.468;18.040;2023-03-16T07:34:17;101595.00;;;-2.12;73.10
50380;BME280;37474;59.468;18.040;2023-03-16T07:36:45;101593.28;;;-2.14;74.55
50380;BME280;37474;59.468;18.040;2023-03-16T07:39:19;101602.94;;;-1.92;73.45
50380;BME280;37474;59.468;18.040;2023-03-16T07:41:49;101611.34;;;-1.96;72.64
50380;BME280;37474;59.468;18.040;2023-03-16T07:44:17;101611.25;;;-2.02;71.90
50380;BME280;37474;59.468;18.040;2023-03-16T07:46:46;101612.41;;;-1.78;71.71
50380;BME280;37474;59.468;18.040;2023-03-16T07:49:16;101614.16;;;-1.77;71.15
50380;BME280;37474;59.468;18.040;2023-03-16T07:51:44;101617.63;;;-1.71;70.85
50380;BME280;37474;59.468;18.040;2023-03-16T07:54:14;101622.66;;;-1.74;70.72
50380;BME280;37474;59.468;18.040;2023-03-16T07:56:45;101628.84;;;-1.53;69.77
50380;BME280;37474;59.468;18.040;2023-03-16T07:59:15;101627.16;;;-1.53;69.47
50380;BME280;37474;59.468;18.040;2023-03-16T08:01:48;101623.00;;;-1.48;69.89
50380;BME280;37474;59.468;18.040;2023-03-16T08:04:16;101631.53;;;-1.43;69.72
50380;BME280;37474;59.468;18.040;2023-03-16T08:06:47;101609.50;;;-1.42;69.59
50380;BME280;37474;59.468;18.040;2023-03-16T08:09:19;101624.03;;;-1.29;69.72
50380;BME280;37474;59.468;18.040;2023-03-16T08:11:49;101630.09;;;-1.18;67.71
50380;BME280;37474;59.468;18.040;2023-03-16T08:14:18;101629.31;;;-1.14;66.78
50380;BME280;37474;59.468;18.040;2023-03-16T08:16:46;101590.84;;;-1.43;68.29
50380;BME280;37474;59.468;18.040;2023-03-16T08:19:16;101632.88;;;-0.96;67.26
50380;BME280;37474;59.468;18.040;2023-03-16T08:21:45;101640.72;;;-0.76;66.14
50380;BME280;37474;59.468;18.040;2023-03-16T08:24:27;101644.09;;;-0.81;64.64
50380;BME280;37474;59.468;18.040;2023-03-16T08:26:57;101645.94;;;-0.64;65.56
50380;BME280;37474;59.468;18.040;2023-03-16T08:29:26;101649.38;;;-0.58;66.46
50380;BME280;37474;59.468;18.040;2023-03-16T08:31:54;101660.75;;;-0.17;66.86
50380;BME280;37474;59.468;18.040;2023-03-16T08:34:25;101654.09;;;0.00;65.08
50380;BME280;37474;59.468;18.040;2023-03-16T08:36:53;101661.75;;;0.03;63.87
50380;BME280;37474;59.468;18.040;2023-03-16T08:39:21;101670.31;;;0.11;62.48
50380;BME280;37474;59.468;18.040;2023-03-16T08:41:51;101666.03;;;0.09;65.29
50380;BME280;37474;59.468;18.040;2023-03-16T08:44:20;101664.34;;;0.11;61.76
50380;BME280;37474;59.468;18.040;2023-03-16T08:46:50;101679.00;;;0.41;62.34
50380;BME280;37474;59.468;18.040;2023-03-16T08:49:23;101678.06;;;0.25;63.79
50380;BME280;37474;59.468;18.040;2023-03-16T08:51:52;101678.06;;;0.23;61.32
50380;BME280;37474;59.468;18.040;2023-03-16T08:54:20;101683.25;;;0.42;63.56
50380;BME280;37474;59.468;18.040;2023-03-16T08:56:52;101683.34;;;0.56;61.32
50380;BME280;37474;59.468;18.040;2023-03-16T08:59:23;101691.91;;;0.67;62.19
50380;BME280;37474;59.468;18.040;2023-03-16T09:01:56;101698.66;;;0.65;60.91
50380;BME280;37474;59.468;18.040;2023-03-16T09:04:28;101699.59;;;0.79;59.37
50380;BME280;37474;59.468;18.040;2023-03-16T09:06:56;101707.94;;;0.46;62.42
50380;BME280;37474;59.468;18.040;2023-03-16T09:09:37;101708.94;;;0.75;61.75
50380;BME280;37474;59.468;18.040;2023-03-16T09:12:07;101713.06;;;0.55;60.26
50380;BME280;37474;59.468;18.040;2023-03-16T09:14:38;101719.09;;;0.63;59.99
50380;BME280;37474;59.468;18.040;2023-03-16T09:17:06;101714.97;;;0.93;60.23
50380;BME280;37474;59.468;18.040;2023-03-16T09:19:34;101722.53;;;0.70;59.46
50380;BME280;37474;59.468;18.040;2023-03-16T09:22:18;101725.16;;;0.88;60.30
50380;BME280;37474;59.468;18.040;2023-03-16T09:24:48;101734.59;;;1.11;62.17
50380;BME280;37474;59.468;18.040;2023-03-16T09:27:16;101738.06;;;1.32;58.82
50380;BME280;37474;59.468;18.040;2023-03-16T09:29:49;101745.72;;;1.17;58.73
50380;BME280;37474;59.468;18.040;2023-03-16T09:32:23;101738.78;;;0.93;58.90
50380;BME280;37474;59.468;18.040;2023-03-16T09:34:53;101744.84;;;1.20;58.32
50380;BME280;37474;59.468;18.040;2023-03-16T09:37:21;101753.38;;;1.25;58.45
50380;BME280;37474;59.468;18.040;2023-03-16T09:39:49;101750.75;;;1.02;58.28
50380;BME280;37474;59.468;18.040;2023-03-16T09:42:25;101752.47;;;1.08;58.79
50380;BME280;37474;59.468;18.040;2023-03-16T09:45:07;101754.09;;;0.92;58.29
50380;BME280;37474;59.468;18.040;2023-03-16T09:47:37;101754.22;;;1.19;57.59
50380;BME280;37474;59.468;18.040;2023-03-16T09:50:14;101762.00;;;1.59;57.41
50380;BME280;37474;59.468;18.040;2023-03-16T09:52:52;101758.53;;;1.37;56.58
50380;BME280;37474;59.468;18.040;2023-03-16T09:55:26;101765.41;;;1.66;56.16
50380;BME280;37474;59.468;18.040;2023-03-16T09:57:56;101732.09;;;1.27;56.67
50380;BME280;37474;59.468;18.040;2023-03-16T10:00:33;101767.03;;;1.38;57.26
50380;BME280;37474;59.468;18.040;2023-03-16T10:03:14;101776.44;;;1.48;57.07
50380;BME280;37474;59.468;18.040;2023-03-16T10:05:46;101773.00;;;1.37;56.60
50380;BME280;37474;59.468;18.040;2023-03-16T10:08:20;101774.75;;;1.53;57.22
50380;BME280;37474;59.468;18.040;2023-03-16T10:11:12;101783.34;;;1.82;55.94
50380;BME280;37474;59.468;18.040;2023-03-16T10:13:46;101791.00;;;1.69;55.51
50380;BME280;37474;59.468;18.040;2023-03-16T10:16:24;101782.50;;;1.90;56.15
50380;BME280;37474;59.468;18.040;2023-03-16T10:18:59;101796.13;;;2.05;54.85
50380;BME280;37474;59.468;18.040;2023-03-16T10:21:32;101793.59;;;2.13;55.07
50380;BME280;37474;59.468;18.040;2023-03-16T10:24:12;101752.66;;;1.89;53.85
50380;BME280;37474;59.468;18.040;2023-03-16T10:26:53;101803.84;;;2.13;53.26
50380;BME280;37474;59.468;18.040;2023-03-16T10:29:26;101812.34;;;2.15;53.55
50380;BME280;37474;59.468;18.040;2023-03-16T10:32:10;101808.09;;;2.32;54.39
50380;BME280;37474;59.468;18.040;2023-03-16T10:34:38;101802.09;;;2.44;52.99
50380;BME280;37474;59.468;18.040;2023-03-16T10:37:13;101814.06;;;2.63;52.39
50380;BME280;37474;59.468;18.040;2023-03-16T10:39:41;101811.47;;;2.76;52.00
50380;BME280;37474;59.468;18.040;2023-03-16T10:42:18;101816.63;;;2.47;52.77
50380;BME280;37474;59.468;18.040;2023-03-16T10:44:46;101826.88;;;2.25;53.32
50380;BME280;37474;59.468;18.040;2023-03-16T10:47:21;101825.16;;;2.38;53.00
50380;BME280;37474;59.468;18.040;2023-03-16T10:49:50;101824.28;;;2.48;52.26
50380;BME280;37474;59.468;18.040;2023-03-16T10:52:28;101822.59;;;2.52;52.25
50380;BME280;37474;59.468;18.040;2023-03-16T10:55:05;101826.84;;;2.73;53.00
50380;BME280;37474;59.468;18.040;2023-03-16T10:57:42;101829.41;;;2.42;50.75
50380;BME280;37474;59.468;18.040;2023-03-16T11:00:19;101836.25;;;2.37;51.16
50380;BME280;37474;59.468;18.040;2023-03-16T11:02:52;101836.25;;;2.20;52.01
50380;BME280;37474;59.468;18.040;2023-03-16T11:05:28;101838.81;;;2.25;51.16
50380;BME280;37474;59.468;18.040;2023-03-16T11:08:05;101836.25;;;2.43;51.07
50380;BME280;37474;59.468;18.040;2023-03-16T11:10:38;101841.38;;;2.31;50.02
50380;BME280;37474;59.468;18.040;2023-03-16T11:13:24;101844.78;;;2.41;51.40
50380;BME280;37474;59.468;18.040;2023-03-16T11:16:00;101843.94;;;2.51;50.52
50380;BME280;37474;59.468;18.040;2023-03-16T11:18:37;101847.34;;;2.41;50.81
50380;BME280;37474;59.468;18.040;2023-03-16T11:21:14;101849.03;;;2.31;50.67
50380;BME280;37474;59.468;18.040;2023-03-16T11:23:47;101848.19;;;2.46;51.21
50380;BME280;37474;59.468;18.040;2023-03-16T11:26:20;101851.59;;;2.54;50.97
50380;BME280;37474;59.468;18.040;2023-03-16T11:28:56;101835.41;;;2.41;50.56
50380;BME280;37474;59.468;18.040;2023-03-16T11:31:36;101855.03;;;2.62;50.49
50380;BME280;37474;59.468;18.040;2023-03-16T11:34:14;101848.16;;;2.96;50.73
50380;BME280;37474;59.468;18.040;2023-03-16T11:36:49;101826.81;;;2.88;49.88
50380;BME280;37474;59.468;18.040;2023-03-16T11:39:28;101857.56;;;2.83;49.93
50380;BME280;37474;59.468;18.040;2023-03-16T11:42:07;101859.25;;;2.89;49.30
50380;BME280;37474;59.468;18.040;2023-03-16T11:44:46;101856.66;;;3.04;49.10
50380;BME280;37474;59.468;18.040;2023-03-16T11:50:16;101866.84;;;3.26;49.42
50380;BME280;37474;59.468;18.040;2023-03-16T11:52:49;101877.09;;;3.21;49.54
50380;BME280;37474;59.468;18.040;2023-03-16T11:55:32;101877.97;;;3.18;48.89
50380;BME280;37474;59.468;18.040;2023-03-16T11:58:14;101872.84;;;3.20;48.01
50380;BME280;37474;59.468;18.040;2023-03-16T12:00:50;101873.69;;;3.28;47.32
50380;BME280;37474;59.468;18.040;2023-03-16T12:03:34;101872.84;;;3.28;48.12
50380;BME280;37474;59.468;18.040;2023-03-16T12:06:16;101877.09;;;3.27;48.06
50380;BME280;37474;59.468;18.040;2023-03-16T12:09:30;101872.00;;;3.18;48.69
50380;BME280;37474;59.468;18.040;2023-03-16T12:12:16;101865.88;;;3.62;49.24
50380;BME280;37474;59.468;18.040;2023-03-16T12:14:54;101864.09;;;3.70;47.49
50380;BME280;37474;59.468;18.040;2023-03-16T12:17:32;101864.00;;;3.87;47.67
50380;BME280;37474;59.468;18.040;2023-03-16T12:20:06;101873.31;;;4.05;47.46
50380;BME280;37474;59.468;18.040;2023-03-16T12:22:49;101882.78;;;3.93;46.54
50380;BME280;37474;59.468;18.040;2023-03-16T12:25:21;101881.25;;;3.63;46.34
50380;BME280;37474;59.468;18.040;2023-03-16T12:27:53;101825.72;;;3.56;46.81
50380;BME280;37474;59.468;18.040;2023-03-16T12:30:31;101885.16;;;4.26;45.75
50380;BME280;37474;59.468;18.040;2023-03-16T12:33:08;101887.78;;;4.16;45.47
50380;BME280;37474;59.468;18.040;2023-03-16T12:35:44;101885.41;;;3.89;45.22
50380;BME280;37474;59.468;18.040;2023-03-16T12:38:24;101879.66;;;4.73;45.78
50380;BME280;37474;59.468;18.040;2023-03-16T12:41:08;101887.41;;;4.65;45.06
50380;BME280;37474;59.468;18.040;2023-03-16T12:43:54;101894.63;;;4.17;44.87
50380;BME280;37474;59.468;18.040;2023-03-16T12:46:30;101897.22;;;4.14;43.87
50380;BME280;37474;59.468;18.040;2023-03-16T12:49:05;101899.72;;;4.28;46.56
50380;BME280;37474;59.468;18.040;2023-03-16T12:51:35;101896.97;;;4.51;44.38
50380;BME280;37474;59.468;18.040;2023-03-16T12:54:05;101897.56;;;4.84;42.93
50380;BME280;37474;59.468;18.040;2023-03-16T12:56:45;101893.22;;;4.87;42.80
50380;BME280;37474;59.468;18.040;2023-03-16T12:59:18;101905.91;;;5.06;42.45
50380;BME280;37474;59.468;18.040;2023-03-16T13:01:48;101905.91;;;5.07;43.54
50380;BME280;37474;59.468;18.040;2023-03-16T13:04:19;101874.94;;;5.18;42.27
50380;BME280;37474;59.468;18.040;2023-03-16T13:06:50;101911.31;;;4.75;42.97